Bagdad, Florida
Current Conditions -  °F | °C
As of 1:56 AM on Sunday 26 Oct 2014 (Local Time) from KNDZ Reporting Station
Clear Clear  
Wind Chill: 55°   Ceiling: Unl
Heat Index: 55°   Visibility: 10mi
Dew Point: 51°   Wind: 0mph
Humidity: 86%   Direction: NA
Pressure: 30.03"   Gusts: NA
Location:  30.6°N, 87.04°W
Report Text: KNDZ 260656Z AUTO 00000KT 10SM CLR 13/11 A3003 RMK AO2 SLP156 T01280106 $
Loading
Personal Weather Stations






























Interactive Weather Map
Tropical Storm Tracking
New forecast layout! Learn more

10-Day Weather Forecast

Advertisements
Track Severe Weather on mobile